°C

Conditions at local time : on    Forecast:

Nearby METAR Reports





EGKA - Shoreham-By-Sea, United Kingdom
Distance from station: ENE 4mi, 6km
Updated: Thu, 20-Jan-2022 10:50am GMT
Clear
Clear
 Wind from NNW
Wind: NNW 9 mph , 15 km/h
Temperature: 4°C
Wind Chill: 1°C
Dew Point: 1°C
Humidity: 81%
Barometer: 1037 hPa
Summary: Clear
Visibility: greater than 7 miles , 10 km
2022/01/20 10:50 EGKA 201050Z 34008KT CAVOK 04/01 Q1037
EGKK - London/Gatwick A, United Kingdom
Distance from station: NNE 24mi, 39km
Updated: Thu, 20-Jan-2022 10:50am GMT
Few Clouds
Few Clouds
 Wind from NW
Wind: NW 8 mph , 13 km/h
Temperature: 4°C
Wind Chill: 1°C
Dew Point: 1°C
Humidity: 81%
Barometer: 1036 hPa
Clouds: Few Clouds
Visibility: 6 miles , 10 km
Cloud details: Few Clouds 427 m
2022/01/20 10:50 EGKK 201050Z 32007KT 9999 FEW014 04/01 Q1036
 
EGLF - Farnborough, United Kingdom
Distance from station: NNW 37mi, 59km
Updated: Thu, 20-Jan-2022 10:50am GMT
Clear
Clear
 Wind from NNW
Wind: NNW 8 mph , 13 km/h
Temperature: 3°C
Wind Chill: -1°C
Dew Point: 0°C
Humidity: 81%
Barometer: 1037 hPa
Clouds: Clear
Visibility: 6 miles , 10 km
2022/01/20 10:50 EGLF 201050Z AUTO 34007KT 9999 NCD 03/00 Q1037
EGVO - Odiham Raf, United Kingdom
Distance from station: NW 38mi, 61km
Updated: Thu, 20-Jan-2022 10:50am GMT
Clear
Clear
 Wind from NW
Wind: NW 10 mph , 17 km/h
Temperature: 3°C
Wind Chill: -1°C
Dew Point: 0°C
Humidity: 81%
Barometer: 1037 hPa
Summary: Clear
Visibility: greater than 7 miles , 10 km
2022/01/20 10:50 EGVO 201050Z 32009KT CAVOK 03/00 Q1037 RMK BLU